sensor_id;sensor_type;location;lat;lon;timestamp;pressure;altitude;pressure_sealevel;temperature;humidity
74552;BME280;63025;55.472;38.432;2023-12-28T00:00:30;99353.53;;;-0.30;100.00
74552;BME280;63025;55.472;38.432;2023-12-28T00:02:56;99358.81;;;-0.30;100.00
74552;BME280;63025;55.472;38.432;2023-12-28T00:05:22;99347.94;;;-0.27;100.00
74552;BME280;63025;55.472;38.432;2023-12-28T00:07:48;99361.00;;;-0.25;100.00
74552;BME280;63025;55.472;38.432;2023-12-28T00:10:15;99359.19;;;-0.25;100.00
74552;BME280;63025;55.472;38.432;2023-12-28T00:12:41;99359.03;;;-0.23;100.00
74552;BME280;63025;55.472;38.432;2023-12-28T00:15:07;99358.19;;;-0.24;100.00
74552;BME280;63025;55.472;38.432;2023-12-28T00:17:33;99360.34;;;-0.19;100.00
74552;BME280;63025;55.472;38.432;2023-12-28T00:19:59;99359.84;;;-0.23;100.00
74552;BME280;63025;55.472;38.432;2023-12-28T00:22:25;99366.13;;;-0.24;100.00
74552;BME280;63025;55.472;38.432;2023-12-28T00:24:51;99362.50;;;-0.23;100.00
74552;BME280;63025;55.472;38.432;2023-12-28T00:27:17;99357.06;;;-0.21;100.00
74552;BME280;63025;55.472;38.432;2023-12-28T00:29:42;99359.50;;;-0.20;100.00
74552;BME280;63025;55.472;38.432;2023-12-28T00:32:08;99355.91;;;-0.19;100.00
74552;BME280;63025;55.472;38.432;2023-12-28T00:34:35;99347.25;;;-0.29;100.00
74552;BME280;63025;55.472;38.432;2023-12-28T00:37:02;99344.25;;;-0.42;100.00
74552;BME280;63025;55.472;38.432;2023-12-28T00:39:28;99343.91;;;-0.39;100.00
74552;BME280;63025;55.472;38.432;2023-12-28T00:41:54;99346.25;;;-0.36;100.00
74552;BME280;63025;55.472;38.432;2023-12-28T00:44:20;99355.34;;;-0.30;100.00
74552;BME280;63025;55.472;38.432;2023-12-28T00:46:45;99354.84;;;-0.34;100.00
74552;BME280;63025;55.472;38.432;2023-12-28T00:49:11;99343.75;;;-0.38;100.00
74552;BME280;63025;55.472;38.432;2023-12-28T00:51:37;99350.53;;;-0.35;100.00
74552;BME280;63025;55.472;38.432;2023-12-28T00:54:02;99354.16;;;-0.36;100.00
74552;BME280;63025;55.472;38.432;2023-12-28T00:56:28;99362.91;;;-0.35;100.00
74552;BME280;63025;55.472;38.432;2023-12-28T00:58:54;99358.09;;;-0.40;100.00
74552;BME280;63025;55.472;38.432;2023-12-28T01:01:20;99362.72;;;-0.42;100.00
74552;BME280;63025;55.472;38.432;2023-12-28T01:03:46;99377.53;;;-0.41;100.00
74552;BME280;63025;55.472;38.432;2023-12-28T01:06:12;99372.28;;;-0.41;100.00
74552;BME280;63025;55.472;38.432;2023-12-28T01:08:38;99386.97;;;-0.39;100.00
74552;BME280;63025;55.472;38.432;2023-12-28T01:11:04;99381.34;;;-0.44;100.00
74552;BME280;63025;55.472;38.432;2023-12-28T01:13:30;99390.94;;;-0.43;100.00
74552;BME280;63025;55.472;38.432;2023-12-28T01:15:56;99390.75;;;-0.41;100.00
74552;BME280;63025;55.472;38.432;2023-12-28T01:18:22;99383.50;;;-0.39;100.00
74552;BME280;63025;55.472;38.432;2023-12-28T01:20:48;99382.53;;;-0.38;100.00
74552;BME280;63025;55.472;38.432;2023-12-28T01:23:14;99396.09;;;-0.33;100.00
74552;BME280;63025;55.472;38.432;2023-12-28T01:25:39;99395.94;;;-0.31;100.00
74552;BME280;63025;55.472;38.432;2023-12-28T01:28:05;99395.63;;;-0.28;100.00
74552;BME280;63025;55.472;38.432;2023-12-28T01:30:31;99402.69;;;-0.29;100.00
74552;BME280;63025;55.472;38.432;2023-12-28T01:32:57;99402.41;;;-0.26;100.00
74552;BME280;63025;55.472;38.432;2023-12-28T01:35:23;99408.34;;;-0.24;100.00
74552;BME280;63025;55.472;38.432;2023-12-28T01:37:49;99412.66;;;-0.23;100.00
74552;BME280;63025;55.472;38.432;2023-12-28T01:40:15;99404.06;;;-0.25;100.00
74552;BME280;63025;55.472;38.432;2023-12-28T01:42:45;99417.59;;;-0.20;100.00
74552;BME280;63025;55.472;38.432;2023-12-28T01:45:10;99425.53;;;-0.20;100.00
74552;BME280;63025;55.472;38.432;2023-12-28T01:47:37;99418.28;;;-0.18;100.00
74552;BME280;63025;55.472;38.432;2023-12-28T01:50:05;99421.91;;;-0.19;100.00
74552;BME280;63025;55.472;38.432;2023-12-28T01:52:31;99418.97;;;-0.16;100.00
74552;BME280;63025;55.472;38.432;2023-12-28T01:54:57;99418.97;;;-0.16;100.00
74552;BME280;63025;55.472;38.432;2023-12-28T01:57:24;99418.78;;;-0.22;100.00
74552;BME280;63025;55.472;38.432;2023-12-28T01:59:51;99420.59;;;-0.23;100.00
74552;BME280;63025;55.472;38.432;2023-12-28T02:02:17;99418.91;;;-0.24;100.00
74552;BME280;63025;55.472;38.432;2023-12-28T02:04:44;99422.88;;;-0.20;100.00
74552;BME280;63025;55.472;38.432;2023-12-28T02:07:10;99438.22;;;-0.23;100.00
74552;BME280;63025;55.472;38.432;2023-12-28T02:09:38;99443.38;;;-0.22;100.00
74552;BME280;63025;55.472;38.432;2023-12-28T02:12:06;99443.41;;;-0.14;100.00
74552;BME280;63025;55.472;38.432;2023-12-28T02:14:32;99447.56;;;-0.11;100.00
74552;BME280;63025;55.472;38.432;2023-12-28T02:17:00;99441.44;;;-0.12;100.00
74552;BME280;63025;55.472;38.432;2023-12-28T02:22:02;99451.31;;;-0.14;100.00
74552;BME280;63025;55.472;38.432;2023-12-28T02:24:29;99444.72;;;-0.10;100.00
74552;BME280;63025;55.472;38.432;2023-12-28T02:26:55;99444.44;;;-0.07;100.00
74552;BME280;63025;55.472;38.432;2023-12-28T02:29:21;99449.72;;;-0.07;100.00
74552;BME280;63025;55.472;38.432;2023-12-28T02:31:56;99449.09;;;-0.01;100.00
74552;BME280;63025;55.472;38.432;2023-12-28T02:34:34;99451.75;;;-0.01;100.00
74552;BME280;63025;55.472;38.432;2023-12-28T02:37:04;99457.69;;;0.02;100.00
74552;BME280;63025;55.472;38.432;2023-12-28T02:39:30;99454.38;;;-0.01;100.00
74552;BME280;63025;55.472;38.432;2023-12-28T02:41:57;99462.97;;;0.02;100.00
74552;BME280;63025;55.472;38.432;2023-12-28T02:44:23;99466.28;;;0.04;100.00
74552;BME280;63025;55.472;38.432;2023-12-28T02:46:49;99475.34;;;0.01;100.00
74552;BME280;63025;55.472;38.432;2023-12-28T02:49:15;99475.50;;;-0.01;100.00
74552;BME280;63025;55.472;38.432;2023-12-28T02:51:41;99470.00;;;-0.07;100.00
74552;BME280;63025;55.472;38.432;2023-12-28T02:54:10;99467.84;;;-0.12;100.00
74552;BME280;63025;55.472;38.432;2023-12-28T02:56:35;99472.16;;;-0.11;100.00
74552;BME280;63025;55.472;38.432;2023-12-28T02:59:03;99478.09;;;-0.09;100.00
74552;BME280;63025;55.472;38.432;2023-12-28T03:01:29;99481.72;;;-0.10;100.00
74552;BME280;63025;55.472;38.432;2023-12-28T03:03:55;99490.47;;;-0.09;100.00
74552;BME280;63025;55.472;38.432;2023-12-28T03:06:22;99482.22;;;-0.06;100.00
74552;BME280;63025;55.472;38.432;2023-12-28T03:08:47;99485.41;;;-0.03;100.00
74552;BME280;63025;55.472;38.432;2023-12-28T03:11:14;99479.44;;;-0.05;100.00
74552;BME280;63025;55.472;38.432;2023-12-28T03:13:40;99486.09;;;-0.01;100.00
74552;BME280;63025;55.472;38.432;2023-12-28T03:16:06;99481.09;;;-0.04;100.00
74552;BME280;63025;55.472;38.432;2023-12-28T03:18:34;99479.44;;;-0.05;100.00
74552;BME280;63025;55.472;38.432;2023-12-28T03:21:01;99481.94;;;-0.03;100.00
74552;BME280;63025;55.472;38.432;2023-12-28T03:23:27;99485.56;;;-0.04;100.00
74552;BME280;63025;55.472;38.432;2023-12-28T03:25:52;99489.31;;;-0.07;100.00
74552;BME280;63025;55.472;38.432;2023-12-28T03:28:18;99491.81;;;-0.05;100.00
74552;BME280;63025;55.472;38.432;2023-12-28T03:30:44;99496.41;;;-0.07;100.00
74552;BME280;63025;55.472;38.432;2023-12-28T03:33:10;99495.59;;;-0.08;100.00
74552;BME280;63025;55.472;38.432;2023-12-28T03:35:36;99496.56;;;-0.09;100.00
74552;BME280;63025;55.472;38.432;2023-12-28T03:38:02;99500.88;;;-0.08;100.00
74552;BME280;63025;55.472;38.432;2023-12-28T03:40:28;99505.66;;;-0.11;100.00
74552;BME280;63025;55.472;38.432;2023-12-28T03:42:54;99506.63;;;-0.12;100.00
74552;BME280;63025;55.472;38.432;2023-12-28T03:45:20;99499.53;;;-0.12;100.00
74552;BME280;63025;55.472;38.432;2023-12-28T03:47:46;99504.44;;;-0.17;100.00
74552;BME280;63025;55.472;38.432;2023-12-28T03:50:12;99504.75;;;-0.20;100.00
74552;BME280;63025;55.472;38.432;2023-12-28T03:52:38;99504.59;;;-0.18;100.00
74552;BME280;63025;55.472;38.432;2023-12-28T03:55:04;99497.84;;;-0.21;100.00
74552;BME280;63025;55.472;38.432;2023-12-28T03:57:29;99502.28;;;-0.21;100.00
74552;BME280;63025;55.472;38.432;2023-12-28T03:59:55;99505.41;;;-0.18;100.00
74552;BME280;63025;55.472;38.432;2023-12-28T04:02:22;99506.25;;;-0.17;100.00
74552;BME280;63025;55.472;38.432;2023-12-28T04:04:50;99506.94;;;-0.15;100.00
74552;BME280;63025;55.472;38.432;2023-12-28T04:07:17;99515.00;;;-0.17;100.00
74552;BME280;63025;55.472;38.432;2023-12-28T04:09:43;99503.47;;;-0.16;100.00
74552;BME280;63025;55.472;38.432;2023-12-28T04:12:08;99519.31;;;-0.16;100.00
74552;BME280;63025;55.472;38.432;2023-12-28T04:14:35;99520.28;;;-0.17;100.00
74552;BME280;63025;55.472;38.432;2023-12-28T04:17:00;99528.34;;;-0.18;100.00
74552;BME280;63025;55.472;38.432;2023-12-28T04:19:26;99524.06;;;-0.19;100.00
74552;BME280;63025;55.472;38.432;2023-12-28T04:21:52;99532.16;;;-0.21;100.00
74552;BME280;63025;55.472;38.432;2023-12-28T04:24:18;99532.75;;;-0.27;100.00
74552;BME280;63025;55.472;38.432;2023-12-28T04:26:44;99538.88;;;-0.26;100.00
74552;BME280;63025;55.472;38.432;2023-12-28T04:29:10;99534.41;;;-0.26;100.00
74552;BME280;63025;55.472;38.432;2023-12-28T04:31:42;99534.72;;;-0.29;100.00
74552;BME280;63025;55.472;38.432;2023-12-28T04:34:08;99529.44;;;-0.29;100.00
74552;BME280;63025;55.472;38.432;2023-12-28T04:36:40;99520.03;;;-0.31;100.00
74552;BME280;63025;55.472;38.432;2023-12-28T04:39:07;99517.84;;;-0.36;100.00
74552;BME280;63025;55.472;38.432;2023-12-28T04:41:33;99528.19;;;-0.43;100.00
74552;BME280;63025;55.472;38.432;2023-12-28T04:43:59;99525.53;;;-0.43;100.00
74552;BME280;63025;55.472;38.432;2023-12-28T04:46:24;99525.91;;;-0.38;100.00
74552;BME280;63025;55.472;38.432;2023-12-28T04:48:50;99526.03;;;-0.39;100.00
74552;BME280;63025;55.472;38.432;2023-12-28T04:51:16;99522.56;;;-0.40;100.00
74552;BME280;63025;55.472;38.432;2023-12-28T04:53:42;99525.91;;;-0.38;100.00
74552;BME280;63025;55.472;38.432;2023-12-28T04:56:08;99535.47;;;-0.37;100.00
74552;BME280;63025;55.472;38.432;2023-12-28T04:58:34;99537.28;;;-0.37;100.00
74552;BME280;63025;55.472;38.432;2023-12-28T05:01:01;99546.47;;;-0.41;100.00
74552;BME280;63025;55.472;38.432;2023-12-28T05:03:28;99557.66;;;-0.47;100.00
74552;BME280;63025;55.472;38.432;2023-12-28T05:05:54;99558.63;;;-0.48;100.00
74552;BME280;63025;55.472;38.432;2023-12-28T05:08:20;99550.72;;;-0.48;100.00
74552;BME280;63025;55.472;38.432;2023-12-28T05:10:46;99544.91;;;-0.52;100.00
74552;BME280;63025;55.472;38.432;2023-12-28T05:13:12;99554.25;;;-0.57;100.00
74552;BME280;63025;55.472;38.432;2023-12-28T05:15:38;99553.56;;;-0.59;100.00
74552;BME280;63025;55.472;38.432;2023-12-28T05:18:04;99550.72;;;-0.66;100.00
74552;BME280;63025;55.472;38.432;2023-12-28T05:20:32;99547.03;;;-0.73;100.00
74552;BME280;63025;55.472;38.432;2023-12-28T05:22:58;99545.44;;;-0.84;100.00
74552;BME280;63025;55.472;38.432;2023-12-28T05:25:24;99553.00;;;-0.98;100.00
74552;BME280;63025;55.472;38.432;2023-12-28T05:27:50;99554.03;;;-1.09;100.00
74552;BME280;63025;55.472;38.432;2023-12-28T05:30:15;99554.94;;;-1.18;100.00
74552;BME280;63025;55.472;38.432;2023-12-28T05:32:41;99552.47;;;-1.29;100.00
74552;BME280;63025;55.472;38.432;2023-12-28T05:35:07;99553.50;;;-1.40;100.00
74552;BME280;63025;55.472;38.432;2023-12-28T05:37:33;99567.41;;;-1.48;100.00
74552;BME280;63025;55.472;38.432;2023-12-28T05:40:00;99574.66;;;-1.59;100.00
74552;BME280;63025;55.472;38.432;2023-12-28T05:42:25;99568.59;;;-1.69;100.00
74552;BME280;63025;55.472;38.432;2023-12-28T05:44:51;99574.03;;;-1.80;100.00
74552;BME280;63025;55.472;38.432;2023-12-28T05:47:17;99573.06;;;-1.89;100.00
74552;BME280;63025;55.472;38.432;2023-12-28T05:49:43;99580.56;;;-1.94;100.00
74552;BME280;63025;55.472;38.432;2023-12-28T05:52:09;99578.78;;;-2.03;100.00
74552;BME280;63025;55.472;38.432;2023-12-28T05:54:35;99587.25;;;-2.09;100.00
74552;BME280;63025;55.472;38.432;2023-12-28T05:57:01;99584.19;;;-2.14;100.00
74552;BME280;63025;55.472;38.432;2023-12-28T05:59:26;99588.22;;;-2.10;100.00
74552;BME280;63025;55.472;38.432;2023-12-28T06:01:52;99592.38;;;-2.08;100.00
74552;BME280;63025;55.472;38.432;2023-12-28T06:04:18;99598.44;;;-2.07;100.00
74552;BME280;63025;55.472;38.432;2023-12-28T06:06:44;99600.94;;;-2.06;100.00
74552;BME280;63025;55.472;38.432;2023-12-28T06:09:10;99616.06;;;-2.08;100.00
74552;BME280;63025;55.472;38.432;2023-12-28T06:11:37;99613.44;;;-2.08;100.00
74552;BME280;63025;55.472;38.432;2023-12-28T06:14:03;99602.75;;;-2.06;100.00
74552;BME280;63025;55.472;38.432;2023-12-28T06:16:29;99607.47;;;-2.00;100.00
74552;BME280;63025;55.472;38.432;2023-12-28T06:18:58;99609.94;;;-1.89;100.00
74552;BME280;63025;55.472;38.432;2023-12-28T06:21:24;99609.38;;;-1.83;100.00
74552;BME280;63025;55.472;38.432;2023-12-28T06:23:50;99618.78;;;-1.80;100.00
74552;BME280;63025;55.472;38.432;2023-12-28T06:26:15;99619.34;;;-1.77;100.00
74552;BME280;63025;55.472;38.432;2023-12-28T06:28:41;99621.56;;;-1.72;100.00
74552;BME280;63025;55.472;38.432;2023-12-28T06:31:07;99626.81;;;-1.72;100.00
74552;BME280;63025;55.472;38.432;2023-12-28T06:33:33;99638.03;;;-1.61;100.00
74552;BME280;63025;55.472;38.432;2023-12-28T06:36:04;99633.44;;;-1.49;100.00
74552;BME280;63025;55.472;38.432;2023-12-28T06:38:30;99645.63;;;-1.48;100.00
74552;BME280;63025;55.472;38.432;2023-12-28T06:40:57;99649.50;;;-1.42;100.00
74552;BME280;63025;55.472;38.432;2023-12-28T06:43:23;99650.28;;;-1.32;100.00
74552;BME280;63025;55.472;38.432;2023-12-28T06:45:49;99655.97;;;-1.27;100.00
74552;BME280;63025;55.472;38.432;2023-12-28T06:48:14;99660.38;;;-1.18;100.00
74552;BME280;63025;55.472;38.432;2023-12-28T06:50:40;99665.06;;;-1.12;100.00
74552;BME280;63025;55.472;38.432;2023-12-28T06:53:06;99669.09;;;-1.08;100.00
74552;BME280;63025;55.472;38.432;2023-12-28T06:55:32;99670.56;;;-0.96;100.00
74552;BME280;63025;55.472;38.432;2023-12-28T06:57:58;99670.38;;;-0.85;100.00
74552;BME280;63025;55.472;38.432;2023-12-28T07:00:23;99674.78;;;-0.76;100.00
74552;BME280;63025;55.472;38.432;2023-12-28T07:02:49;99676.41;;;-0.65;100.00
74552;BME280;63025;55.472;38.432;2023-12-28T07:05:16;99687.19;;;-0.58;100.00
74552;BME280;63025;55.472;38.432;2023-12-28T07:07:42;99688.25;;;-0.51;100.00
74552;BME280;63025;55.472;38.432;2023-12-28T07:10:08;99687.38;;;-0.42;100.00
74552;BME280;63025;55.472;38.432;2023-12-28T07:12:34;99697.34;;;-0.36;100.00
74552;BME280;63025;55.472;38.432;2023-12-28T07:15:01;99699.22;;;-0.28;100.00
74552;BME280;63025;55.472;38.432;2023-12-28T07:17:29;99699.78;;;-0.25;100.00
74552;BME280;63025;55.472;38.432;2023-12-28T07:19:55;99701.66;;;-0.35;100.00
74552;BME280;63025;55.472;38.432;2023-12-28T07:22:21;99704.16;;;-0.33;100.00
74552;BME280;63025;55.472;38.432;2023-12-28T07:24:47;99709.59;;;0.00;100.00
74552;BME280;63025;55.472;38.432;2023-12-28T07:27:13;99701.00;;;1.03;100.00
74552;BME280;63025;55.472;38.432;2023-12-28T07:29:38;99704.59;;;1.78;100.00
74552;BME280;63025;55.472;38.432;2023-12-28T07:32:04;99715.41;;;1.85;100.00
74552;BME280;63025;55.472;38.432;2023-12-28T07:34:30;99721.28;;;1.63;100.00
74552;BME280;63025;55.472;38.432;2023-12-28T07:36:56;99723.53;;;1.16;100.00
74552;BME280;63025;55.472;38.432;2023-12-28T07:39:22;99720.50;;;0.77;100.00
74552;BME280;63025;55.472;38.432;2023-12-28T07:41:48;99712.75;;;0.57;100.00
74552;BME280;63025;55.472;38.432;2023-12-28T07:44:15;99715.44;;;0.65;100.00
74552;BME280;63025;55.472;38.432;2023-12-28T07:46:42;99716.56;;;0.63;100.00
74552;BME280;63025;55.472;38.432;2023-12-28T07:49:08;99719.69;;;0.58;100.00
74552;BME280;63025;55.472;38.432;2023-12-28T07:51:34;99725.53;;;0.62;100.00
74552;BME280;63025;55.472;38.432;2023-12-28T07:54:00;99716.28;;;0.66;100.00
74552;BME280;63025;55.472;38.432;2023-12-28T07:56:25;99722.81;;;0.80;100.00
74552;BME280;63025;55.472;38.432;2023-12-28T07:58:51;99719.41;;;0.87;100.00
74552;BME280;63025;55.472;38.432;2023-12-28T08:01:17;99718.56;;;0.87;100.00
74552;BME280;63025;55.472;38.432;2023-12-28T08:03:43;99715.31;;;0.93;100.00
74552;BME280;63025;55.472;38.432;2023-12-28T08:06:09;99709.34;;;0.91;100.00
74552;BME280;63025;55.472;38.432;2023-12-28T08:08:38;99721.50;;;0.84;100.00
74552;BME280;63025;55.472;38.432;2023-12-28T08:11:04;99731.44;;;0.82;100.00
74552;BME280;63025;55.472;38.432;2023-12-28T08:13:30;99727.53;;;0.68;100.00
74552;BME280;63025;55.472;38.432;2023-12-28T08:15:55;99733.72;;;0.77;100.00
74552;BME280;63025;55.472;38.432;2023-12-28T08:18:21;99731.69;;;0.70;100.00
74552;BME280;63025;55.472;38.432;2023-12-28T08:20:47;99719.50;;;0.78;100.00
74552;BME280;63025;55.472;38.432;2023-12-28T08:23:14;99734.09;;;0.82;100.00
74552;BME280;63025;55.472;38.432;2023-12-28T08:25:40;99736.41;;;0.85;100.00
74552;BME280;63025;55.472;38.432;2023-12-28T08:28:06;99742.91;;;0.90;100.00
74552;BME280;63025;55.472;38.432;2023-12-28T08:30:32;99745.69;;;0.89;100.00
74552;BME280;63025;55.472;38.432;2023-12-28T08:32:57;99751.28;;;0.86;100.00
74552;BME280;63025;55.472;38.432;2023-12-28T08:35:23;99759.63;;;0.91;100.00
74552;BME280;63025;55.472;38.432;2023-12-28T08:37:49;99755.16;;;0.91;100.00
74552;BME280;63025;55.472;38.432;2023-12-28T08:40:15;99753.19;;;0.93;100.00
74552;BME280;63025;55.472;38.432;2023-12-28T08:42:41;99759.66;;;0.99;100.00
74552;BME280;63025;55.472;38.432;2023-12-28T08:45:07;99763.00;;;1.01;100.00
74552;BME280;63025;55.472;38.432;2023-12-28T08:47:33;99764.41;;;1.13;100.00
74552;BME280;63025;55.472;38.432;2023-12-28T08:49:58;99753.84;;;1.21;100.00
74552;BME280;63025;55.472;38.432;2023-12-28T08:52:24;99763.81;;;1.27;100.00
74552;BME280;63025;55.472;38.432;2023-12-28T08:54:50;99765.19;;;1.39;100.00
74552;BME280;63025;55.472;38.432;2023-12-28T08:57:16;99765.38;;;1.46;100.00
74552;BME280;63025;55.472;38.432;2023-12-28T08:59:42;99763.78;;;1.53;100.00
74552;BME280;63025;55.472;38.432;2023-12-28T09:02:08;99763.25;;;1.50;100.00
74552;BME280;63025;55.472;38.432;2023-12-28T09:04:34;99766.28;;;1.55;100.00
74552;BME280;63025;55.472;38.432;2023-12-28T09:07:00;99761.00;;;1.63;100.00
74552;BME280;63025;55.472;38.432;2023-12-28T09:09:26;99772.75;;;1.60;100.00
74552;BME280;63025;55.472;38.432;2023-12-28T09:11:52;99782.16;;;1.55;100.00
74552;BME280;63025;55.472;38.432;2023-12-28T09:14:18;99788.28;;;1.55;100.00
74552;BME280;63025;55.472;38.432;2023-12-28T09:16:46;99783.44;;;1.42;100.00
74552;BME280;63025;55.472;38.432;2023-12-28T09:19:12;99777.59;;;1.39;100.00
74552;BME280;63025;55.472;38.432;2023-12-28T09:21:37;99794.00;;;1.42;100.00
74552;BME280;63025;55.472;38.432;2023-12-28T09:24:03;99790.81;;;1.31;100.00
74552;BME280;63025;55.472;38.432;2023-12-28T09:26:29;99792.88;;;1.19;100.00
74552;BME280;63025;55.472;38.432;2023-12-28T09:28:55;99791.16;;;1.10;100.00
74552;BME280;63025;55.472;38.432;2023-12-28T09:31:21;99797.25;;;1.02;100.00
74552;BME280;63025;55.472;38.432;2023-12-28T09:33:46;99801.91;;;1.08;100.00
74552;BME280;63025;55.472;38.432;2023-12-28T09:36:12;99803.41;;;1.11;100.00
74552;BME280;63025;55.472;38.432;2023-12-28T09:38:39;99798.47;;;1.16;100.00
74552;BME280;63025;55.472;38.432;2023-12-28T09:41:12;99802.19;;;1.23;100.00
74552;BME280;63025;55.472;38.432;2023-12-28T09:44:08;99798.44;;;1.34;100.00
74552;BME280;63025;55.472;38.432;2023-12-28T09:46:36;99803.88;;;1.32;100.00
74552;BME280;63025;55.472;38.432;2023-12-28T09:49:04;99812.16;;;1.37;100.00
74552;BME280;63025;55.472;38.432;2023-12-28T09:51:30;99822.09;;;1.35;100.00
74552;BME280;63025;55.472;38.432;2023-12-28T09:53:57;99818.31;;;1.38;100.00
74552;BME280;63025;55.472;38.432;2023-12-28T09:56:23;99817.81;;;1.34;100.00
74552;BME280;63025;55.472;38.432;2023-12-28T09:58:51;99826.72;;;1.33;100.00
74552;BME280;63025;55.472;38.432;2023-12-28T10:01:17;99826.72;;;1.33;100.00
74552;BME280;63025;55.472;38.432;2023-12-28T10:03:44;99828.22;;;1.36;100.00
74552;BME280;63025;55.472;38.432;2023-12-28T10:06:10;99835.66;;;1.32;100.00
74552;BME280;63025;55.472;38.432;2023-12-28T10:08:35;99826.50;;;1.27;100.00
74552;BME280;63025;55.472;38.432;2023-12-28T10:11:02;99820.38;;;1.00;100.00
74552;BME280;63025;55.472;38.432;2023-12-28T10:13:28;99816.75;;;1.01;100.00
74552;BME280;63025;55.472;38.432;2023-12-28T10:15:57;99815.38;;;0.97;100.00
74552;BME280;63025;55.472;38.432;2023-12-28T10:18:23;99818.69;;;0.99;100.00
74552;BME280;63025;55.472;38.432;2023-12-28T10:20:50;99817.66;;;0.92;100.00
74552;BME280;63025;55.472;38.432;2023-12-28T10:23:17;99816.28;;;0.88;100.00
74552;BME280;63025;55.472;38.432;2023-12-28T10:25:43;99808.16;;;0.82;100.00
74552;BME280;63025;55.472;38.432;2023-12-28T10:28:10;99808.16;;;0.82;100.00
74552;BME280;63025;55.472;38.432;2023-12-28T10:30:38;99809.63;;;0.84;100.00
74552;BME280;63025;55.472;38.432;2023-12-28T10:33:05;99813.25;;;0.83;100.00
74552;BME280;63025;55.472;38.432;2023-12-28T10:35:32;99809.13;;;0.81;100.00
74552;BME280;63025;55.472;38.432;2023-12-28T10:38:00;99807.31;;;0.81;100.00
74552;BME280;63025;55.472;38.432;2023-12-28T10:40:26;99808.50;;;0.87;100.00
74552;BME280;63025;55.472;38.432;2023-12-28T10:42:57;99805.56;;;0.90;100.00
74552;BME280;63025;55.472;38.432;2023-12-28T10:45:25;99804.78;;;0.97;100.00
74552;BME280;63025;55.472;38.432;2023-12-28T10:47:59;99808.41;;;0.96;100.00
74552;BME280;63025;55.472;38.432;2023-12-28T10:50:43;99814.25;;;1.00;100.00
74552;BME280;63025;55.472;38.432;2023-12-28T10:56:04;99811.84;;;1.15;100.00
74552;BME280;63025;55.472;38.432;2023-12-28T10:58:48;99804.97;;;1.22;100.00
74552;BME280;63025;55.472;38.432;2023-12-28T11:01:28;99803.50;;;1.27;100.00
74552;BME280;63025;55.472;38.432;2023-12-28T11:04:21;99803.25;;;1.38;100.00
74552;BME280;63025;55.472;38.432;2023-12-28T11:06:50;99814.38;;;1.42;100.00
74552;BME280;63025;55.472;38.432;2023-12-28T11:09:17;99808.91;;;1.43;100.00
74552;BME280;63025;55.472;38.432;2023-12-28T11:11:44;99809.75;;;1.44;100.00
74552;BME280;63025;55.472;38.432;2023-12-28T11:14:12;99818.00;;;1.41;100.00
74552;BME280;63025;55.472;38.432;2023-12-28T11:16:40;99812.03;;;1.39;100.00
74552;BME280;63025;55.472;38.432;2023-12-28T11:19:08;99814.47;;;1.32;100.00
74552;BME280;63025;55.472;38.432;2023-12-28T11:21:35;99820.47;;;1.17;100.00
74552;BME280;63025;55.472;38.432;2023-12-28T11:24:02;99828.56;;;1.15;100.00
74552;BME280;63025;55.472;38.432;2023-12-28T11:26:28;99821.78;;;1.13;100.00
74552;BME280;63025;55.472;38.432;2023-12-28T11:29:04;99822.22;;;1.08;100.00
74552;BME280;63025;55.472;38.432;2023-12-28T11:31:33;99822.03;;;1.01;100.00
74552;BME280;63025;55.472;38.432;2023-12-28T11:34:00;99823.59;;;0.94;100.00
74552;BME280;63025;55.472;38.432;2023-12-28T11:36:33;99827.09;;;0.95;100.00
74552;BME280;63025;55.472;38.432;2023-12-28T11:39:03;99821.50;;;0.98;100.00
74552;BME280;63025;55.472;38.432;2023-12-28T11:41:35;99824.28;;;0.96;100.00
74552;BME280;63025;55.472;38.432;2023-12-28T11:44:05;99821.38;;;0.82;100.00
74552;BME280;63025;55.472;38.432;2023-12-28T11:46:47;99834.16;;;0.68;100.00
74552;BME280;63025;55.472;38.432;2023-12-28T11:49:14;99838.47;;;0.69;100.00
74552;BME280;63025;55.472;38.432;2023-12-28T11:51:40;99835.81;;;0.69;100.00
74552;BME280;63025;55.472;38.432;2023-12-28T11:54:06;99839.38;;;0.60;100.00
74552;BME280;63025;55.472;38.432;2023-12-28T11:56:32;99835.56;;;0.45;100.00
74552;BME280;63025;55.472;38.432;2023-12-28T11:59:02;99838.28;;;0.35;100.00
74552;BME280;63025;55.472;38.432;2023-12-28T12:01:29;99841.75;;;0.36;100.00
74552;BME280;63025;55.472;38.432;2023-12-28T12:03:54;99841.47;;;0.39;100.00
74552;BME280;63025;55.472;38.432;2023-12-28T12:06:20;99841.47;;;0.39;100.00
74552;BME280;63025;55.472;38.432;2023-12-28T12:08:46;99854.53;;;0.41;100.00
74552;BME280;63025;55.472;38.432;2023-12-28T12:11:12;99851.44;;;0.45;100.00
74552;BME280;63025;55.472;38.432;2023-12-28T12:13:39;99852.41;;;0.44;100.00
74552;BME280;63025;55.472;38.432;2023-12-28T12:16:05;99855.13;;;0.52;100.00
74552;BME280;63025;55.472;38.432;2023-12-28T12:18:34;99858.59;;;0.53;100.00
74552;BME280;63025;55.472;38.432;2023-12-28T12:21:02;99857.41;;;0.47;100.00
74552;BME280;63025;55.472;38.432;2023-12-28T12:23:28;99854.22;;;0.44;100.00
74552;BME280;63025;55.472;38.432;2023-12-28T12:25:54;99850.16;;;0.49;100.00
74552;BME280;63025;55.472;38.432;2023-12-28T12:28:21;99849.19;;;0.50;100.00
74552;BME280;63025;55.472;38.432;2023-12-28T12:33:17;99880.13;;;0.40;100.00
74552;BME280;63025;55.472;38.432;2023-12-28T12:35:43;99884.19;;;0.34;100.00
74552;BME280;63025;55.472;38.432;2023-12-28T12:38:09;99883.06;;;0.37;100.00
74552;BME280;63025;55.472;38.432;2023-12-28T12:40:37;99886.25;;;0.41;100.00
74552;BME280;63025;55.472;38.432;2023-12-28T12:43:02;99886.09;;;0.42;100.00
74552;BME280;63025;55.472;38.432;2023-12-28T12:45:29;99880.13;;;0.40;100.00
74552;BME280;63025;55.472;38.432;2023-12-28T12:47:55;99882.09;;;0.38;100.00
74552;BME280;63025;55.472;38.432;2023-12-28T12:50:20;99882.59;;;0.42;100.00